createdAt,value
2023-03-16T00:01:47.619Z,2.69
2023-03-16T00:05:52.999Z,2.67
2023-03-16T00:09:57.446Z,2.62
2023-03-16T00:14:00.168Z,2.59
2023-03-16T00:18:04.682Z,2.57
2023-03-16T00:22:07.760Z,2.59
2023-03-16T00:26:12.958Z,2.58
2023-03-16T00:30:15.896Z,2.57
2023-03-16T00:34:22.862Z,2.56
2023-03-16T00:38:25.748Z,2.54
2023-03-16T00:42:31.391Z,2.55
2023-03-16T00:46:34.685Z,2.56
2023-03-16T00:50:39.138Z,2.59
2023-03-16T00:54:43.964Z,2.61
2023-03-16T00:58:47.014Z,2.67
2023-03-16T01:02:50.271Z,2.69
2023-03-16T01:06:57.426Z,2.73
2023-03-16T01:11:03.807Z,2.78
2023-03-16T01:15:08.081Z,2.79
2023-03-16T01:19:12.561Z,2.81
2023-03-16T01:23:16.863Z,2.84
2023-03-16T01:27:20.125Z,2.89
2023-03-16T01:31:23.576Z,2.94
2023-03-16T01:35:26.691Z,2.98
2023-03-16T01:39:42.551Z,3.01
2023-03-16T01:43:47.377Z,3.08
2023-03-16T01:47:50.790Z,3.11
2023-03-16T01:51:58.477Z,3.16
2023-03-16T01:56:08.648Z,3.18
2023-03-16T02:00:19.133Z,3.24
2023-03-16T02:04:45.329Z,3.24
2023-03-16T02:08:55.219Z,3.31
2023-03-16T02:13:00.837Z,3.33
2023-03-16T02:17:03.780Z,3.32
2023-03-16T02:21:16.270Z,3.32
2023-03-16T02:25:21.687Z,3.35
2023-03-16T02:29:42.054Z,3.37
2023-03-16T02:33:46.833Z,3.44
2023-03-16T02:37:50.178Z,3.47
2023-03-16T02:41:53.774Z,3.49
2023-03-16T02:46:03.326Z,3.53
2023-03-16T02:50:07.683Z,3.51
2023-03-16T02:54:11.546Z,3.51
2023-03-16T02:58:17.875Z,3.55
2023-03-16T03:02:24.287Z,3.56
2023-03-16T03:06:27.366Z,3.53
2023-03-16T03:10:31.103Z,3.58
2023-03-16T03:14:37.930Z,3.62
2023-03-16T03:18:42.473Z,3.63
2023-03-16T03:22:48.731Z,3.68
2023-03-16T03:26:53.140Z,3.69
2023-03-16T03:30:57.628Z,3.70
2023-03-16T03:35:01.965Z,3.73
2023-03-16T03:39:05.599Z,3.77
2023-03-16T03:43:10.264Z,3.78
2023-03-16T03:47:18.475Z,3.79
2023-03-16T03:51:23.444Z,3.84
2023-03-16T03:55:52.448Z,3.85
2023-03-16T03:59:55.389Z,3.85
2023-03-16T04:04:17.410Z,3.88
2023-03-16T04:08:21.837Z,3.90
2023-03-16T04:12:25.468Z,3.94
2023-03-16T04:16:29.331Z,3.96
2023-03-16T04:20:32.597Z,3.98
2023-03-16T04:24:37.439Z,3.99
2023-03-16T04:28:41.372Z,4.01
2023-03-16T04:32:46.718Z,4.03
2023-03-16T04:36:54.258Z,4.04
2023-03-16T04:40:58.948Z,4.05
2023-03-16T04:45:08.629Z,4.04
2023-03-16T04:49:11.692Z,4.03
2023-03-16T04:53:17.990Z,4.09
2023-03-16T04:57:23.888Z,4.05
2023-03-16T05:01:29.416Z,4.08
2023-03-16T05:05:35.364Z,4.06
2023-03-16T05:09:39.537Z,4.08
2023-03-16T05:13:44.414Z,4.09
2023-03-16T05:17:56.765Z,4.06
2023-03-16T05:21:59.602Z,4.10
2023-03-16T05:26:03.139Z,4.10
2023-03-16T05:30:12.052Z,4.13
2023-03-16T05:34:16.312Z,4.09
2023-03-16T05:38:19.483Z,4.07
2023-03-16T05:42:22.562Z,4.08
2023-03-16T05:46:33.821Z,4.08
2023-03-16T05:50:39.461Z,4.12
2023-03-16T05:54:43.139Z,4.07
2023-03-16T05:58:46.931Z,4.11
2023-03-16T06:02:52.497Z,4.15
2023-03-16T06:06:55.885Z,4.17
2023-03-16T06:11:04.151Z,4.14
2023-03-16T06:15:10.420Z,4.07
2023-03-16T06:19:14.873Z,4.11
2023-03-16T06:23:20.244Z,4.10
2023-03-16T06:27:26.591Z,4.15
2023-03-16T06:31:51.429Z,4.16
2023-03-16T06:35:56.557Z,4.21
2023-03-16T06:40:14.643Z,4.25
2023-03-16T06:44:17.930Z,4.35
2023-03-16T06:48:39.491Z,4.44
2023-03-16T06:52:43.849Z,4.52
2023-03-16T06:56:47.192Z,4.63
2023-03-16T07:00:50.066Z,4.73
2023-03-16T07:04:54.041Z,4.77
2023-03-16T07:09:22.015Z,4.79
2023-03-16T07:13:25.898Z,4.86
2023-03-16T07:17:34.750Z,4.93
2023-03-16T07:21:40.877Z,5.02
2023-03-16T07:25:54.573Z,5.14
2023-03-16T07:30:12.119Z,5.22
2023-03-16T07:34:16.409Z,5.33
2023-03-16T07:38:24.495Z,5.41
2023-03-16T07:42:30.968Z,5.45
2023-03-16T07:47:00.044Z,5.56
2023-03-16T07:51:06.131Z,5.57
2023-03-16T07:55:10.282Z,5.68
2023-03-16T07:59:15.636Z,5.79
2023-03-16T08:03:18.977Z,5.95
2023-03-16T08:07:24.051Z,6.13
2023-03-16T08:11:32.576Z,6.32
2023-03-16T08:15:40.370Z,6.42
2023-03-16T08:19:49.844Z,6.60
2023-03-16T08:23:55.883Z,6.66
2023-03-16T08:28:00.446Z,6.77
2023-03-16T08:32:05.177Z,6.87
2023-03-16T08:36:16.681Z,6.89
2023-03-16T08:40:25.346Z,6.93
2023-03-16T08:44:28.428Z,7.01
2023-03-16T08:48:34.759Z,7.08
2023-03-16T08:52:38.078Z,7.19
2023-03-16T08:56:41.344Z,7.29
2023-03-16T09:00:46.844Z,7.36
2023-03-16T09:04:53.102Z,7.39
2023-03-16T09:08:57.245Z,7.43
2023-03-16T09:13:01.389Z,7.43
2023-03-16T09:17:05.157Z,7.50
2023-03-16T09:21:13.161Z,7.50
2023-03-16T09:25:17.288Z,7.50
2023-03-16T09:29:21.818Z,7.48
2023-03-16T09:33:28.669Z,7.46
2023-03-16T09:37:44.521Z,7.44
2023-03-16T09:41:59.010Z,7.28
2023-03-16T09:46:09.798Z,7.19
2023-03-16T09:50:22.497Z,7.19
2023-03-16T09:54:39.804Z,7.25
2023-03-16T09:58:44.024Z,7.29
2023-03-16T10:03:03.947Z,7.30
2023-03-16T10:07:22.081Z,7.31
2023-03-16T10:11:32.995Z,7.36
2023-03-16T10:15:38.801Z,7.44
2023-03-16T10:19:47.409Z,7.49
2023-03-16T10:23:52.323Z,7.53
2023-03-16T10:27:57.420Z,7.57
2023-03-16T10:32:03.683Z,7.65
2023-03-16T10:36:15.644Z,7.76
2023-03-16T10:40:20.382Z,7.90
2023-03-16T10:44:28.556Z,7.85
2023-03-16T10:48:35.078Z,7.93
2023-03-16T10:52:42.683Z,7.94
2023-03-16T10:56:46.816Z,7.99
2023-03-16T11:00:53.588Z,8.07
2023-03-16T11:04:57.585Z,7.91
2023-03-16T11:09:08.554Z,7.91
2023-03-16T11:13:14.770Z,7.94
2023-03-16T11:17:25.417Z,7.94
2023-03-16T11:21:42.069Z,7.93
2023-03-16T11:25:51.762Z,8.02
2023-03-16T11:30:05.631Z,8.08
2023-03-16T11:34:15.508Z,8.21
2023-03-16T11:38:21.616Z,8.27
2023-03-16T11:42:31.789Z,8.31
2023-03-16T11:46:42.025Z,8.42
2023-03-16T11:51:02.767Z,8.50
2023-03-16T11:55:24.881Z,8.71
2023-03-16T11:59:48.967Z,8.96
2023-03-16T12:04:39.832Z,9.20
2023-03-16T12:08:58.841Z,9.26
2023-03-16T12:13:17.137Z,9.46
2023-03-16T12:17:25.787Z,9.53
2023-03-16T12:21:32.596Z,9.67
2023-03-16T12:25:40.916Z,9.82
2023-03-16T12:29:58.432Z,10.06
2023-03-16T12:34:10.981Z,9.97
2023-03-16T12:38:36.667Z,10.13
2023-03-16T12:43:03.307Z,10.19
2023-03-16T12:47:16.124Z,10.21
2023-03-16T12:51:19.789Z,10.27
2023-03-16T12:55:27.891Z,10.06
2023-03-16T12:59:41.565Z,10.03
2023-03-16T13:03:48.118Z,10.03
2023-03-16T13:07:52.762Z,9.97
2023-03-16T13:11:56.137Z,9.96
2023-03-16T13:16:11.068Z,9.92
2023-03-16T13:20:31.090Z,9.98
2023-03-16T13:24:39.898Z,10.11
2023-03-16T13:28:45.362Z,10.31
2023-03-16T13:32:54.737Z,10.63
2023-03-16T13:36:59.797Z,11.02
2023-03-16T13:41:07.396Z,11.31
2023-03-16T13:45:15.319Z,11.55
2023-03-16T13:49:20.317Z,11.75
2023-03-16T13:53:26.418Z,11.82
2023-03-16T13:57:33.157Z,11.90
2023-03-16T14:01:36.203Z,11.83
2023-03-16T14:05:42.491Z,11.83
2023-03-16T14:09:46.622Z,11.70
2023-03-16T14:13:54.697Z,11.76
2023-03-16T14:18:14.663Z,11.83
2023-03-16T14:22:26.049Z,11.73
2023-03-16T14:26:39.798Z,11.68
2023-03-16T14:30:52.222Z,11.66
2023-03-16T14:35:03.692Z,11.70
2023-03-16T14:39:18.140Z,11.91
2023-03-16T14:43:24.464Z,12.30
2023-03-16T14:47:40.674Z,12.43
2023-03-16T14:51:55.019Z,12.47
2023-03-16T14:56:14.384Z,12.52
2023-03-16T15:00:18.927Z,12.59
2023-03-16T15:04:27.794Z,12.68
2023-03-16T15:08:33.828Z,12.58
2023-03-16T15:12:41.349Z,12.64
2023-03-16T15:16:44.603Z,12.65
2023-03-16T15:20:49.922Z,12.68
2023-03-16T15:24:53.569Z,12.56
2023-03-16T15:28:58.863Z,12.63
2023-03-16T15:33:02.733Z,12.65
2023-03-16T15:37:06.598Z,12.61
2023-03-16T15:41:11.283Z,12.64
2023-03-16T15:45:31.384Z,12.58
2023-03-16T15:49:55.882Z,12.61
2023-03-16T15:54:02.322Z,12.54
2023-03-16T15:58:06.359Z,12.44
2023-03-16T16:02:28.074Z,12.38
2023-03-16T16:06:32.409Z,12.34
2023-03-16T16:10:35.842Z,12.32
2023-03-16T16:14:40.434Z,12.33
2023-03-16T16:18:49.430Z,12.25
2023-03-16T16:22:53.005Z,12.14
2023-03-16T16:26:56.604Z,12.01
2023-03-16T16:31:02.699Z,11.96
2023-03-16T16:35:14.138Z,11.91
2023-03-16T16:39:18.176Z,11.80
2023-03-16T16:43:33.248Z,11.72
2023-03-16T16:47:36.225Z,11.66
2023-03-16T16:51:40.610Z,11.55
2023-03-16T16:55:43.390Z,11.48
2023-03-16T16:59:48.317Z,11.38
2023-03-16T17:03:51.769Z,11.30
2023-03-16T17:07:57.192Z,11.22
2023-03-16T17:12:02.155Z,11.16
2023-03-16T17:16:07.653Z,11.09
2023-03-16T17:20:16.353Z,11.00
2023-03-16T17:24:22.666Z,10.94
2023-03-16T17:28:38.717Z,10.83
2023-03-16T17:32:42.075Z,10.71
2023-03-16T17:36:52.341Z,10.57
2023-03-16T17:40:57.465Z,10.49
2023-03-16T17:45:00.690Z,10.31
2023-03-16T17:49:03.548Z,10.22
2023-03-16T17:53:07.982Z,10.15
2023-03-16T17:57:17.694Z,10.08
2023-03-16T18:01:24.987Z,10.04
2023-03-16T18:05:29.786Z,10.00
2023-03-16T18:09:32.665Z,9.94
2023-03-16T18:13:39.061Z,9.88
2023-03-16T18:18:05.874Z,9.79
2023-03-16T18:22:25.380Z,9.71
2023-03-16T18:26:42.661Z,9.62
2023-03-16T18:30:53.596Z,9.58
2023-03-16T18:34:58.844Z,9.55
2023-03-16T18:39:05.696Z,9.51
2023-03-16T18:43:15.339Z,9.49
2023-03-16T18:47:23.257Z,9.43
2023-03-16T18:51:27.021Z,9.36
2023-03-16T18:55:30.754Z,9.27
2023-03-16T18:59:33.826Z,9.25
2023-03-16T19:03:45.194Z,9.23
2023-03-16T19:07:51.394Z,9.16
2023-03-16T19:11:54.988Z,9.09
2023-03-16T19:16:00.068Z,9.10
2023-03-16T19:20:13.972Z,9.08
2023-03-16T19:24:23.971Z,9.04
2023-03-16T19:28:29.553Z,9.02
2023-03-16T19:32:33.205Z,9.02
2023-03-16T19:36:38.441Z,9.02
2023-03-16T19:41:36.521Z,9.01
2023-03-16T19:45:52.194Z,9.02
2023-03-16T19:49:55.542Z,9.02
2023-03-16T19:54:01.453Z,9.00
2023-03-16T19:58:07.561Z,8.95
2023-03-16T20:02:25.403Z,8.88
2023-03-16T20:06:28.768Z,8.81
2023-03-16T20:10:34.029Z,8.80
2023-03-16T20:14:37.985Z,8.77
2023-03-16T20:18:54.917Z,8.73
2023-03-16T20:22:59.670Z,8.71
2023-03-16T20:27:04.672Z,8.72
2023-03-16T20:31:16.149Z,8.72
2023-03-16T20:35:22.583Z,8.71
2023-03-16T20:39:26.598Z,8.70
2023-03-16T20:43:32.841Z,8.68
2023-03-16T20:47:35.671Z,8.68
2023-03-16T20:51:38.622Z,8.71
2023-03-16T20:55:41.722Z,8.72
2023-03-16T20:59:49.063Z,8.75
2023-03-16T21:03:55.095Z,8.76
2023-03-16T21:07:58.325Z,8.73
2023-03-16T21:12:15.056Z,8.77
2023-03-16T21:16:21.559Z,8.77
2023-03-16T21:20:26.643Z,8.78
2023-03-16T21:24:29.684Z,8.78
2023-03-16T21:28:34.914Z,8.77
2023-03-16T21:32:39.803Z,8.76
2023-03-16T21:36:44.345Z,8.79
2023-03-16T21:40:49.190Z,8.82
2023-03-16T21:44:52.357Z,8.80
2023-03-16T21:48:57.223Z,8.80
2023-03-16T21:53:00.916Z,8.81
2023-03-16T21:57:10.894Z,8.80
2023-03-16T22:01:23.482Z,8.74
2023-03-16T22:05:36.531Z,8.72
2023-03-16T22:09:39.571Z,8.66
2023-03-16T22:13:42.475Z,8.62
2023-03-16T22:17:45.508Z,8.57
2023-03-16T22:21:50.360Z,8.53
2023-03-16T22:25:53.303Z,8.51
2023-03-16T22:29:57.800Z,8.46
2023-03-16T22:34:01.937Z,8.40
2023-03-16T22:38:08.592Z,8.37
2023-03-16T22:42:26.131Z,8.32
2023-03-16T22:46:29.929Z,8.31
2023-03-16T22:50:36.235Z,8.26
2023-03-16T22:54:40.885Z,8.21
2023-03-16T22:58:46.346Z,8.18
2023-03-16T23:02:51.141Z,8.13
2023-03-16T23:06:55.168Z,8.06
2023-03-16T23:10:59.884Z,8.06
2023-03-16T23:15:03.258Z,8.03
2023-03-16T23:19:24.262Z,7.98
2023-03-16T23:23:27.530Z,7.98
2023-03-16T23:27:32.189Z,8.02
2023-03-16T23:31:35.012Z,7.99
2023-03-16T23:35:38.646Z,7.98
2023-03-16T23:39:42.294Z,8.00
2023-03-16T23:43:47.811Z,7.97
2023-03-16T23:47:53.144Z,7.94
2023-03-16T23:51:58.687Z,7.90
2023-03-16T23:56:02.837Z,7.89
